Aeroporto :
LOGIN :

Iscrizione | Disclaimer

   EN    FR    IT 

 










Sommario :    VFR   VFR Marginale   IFR   IFR Intensivo   IFR Molto Intensivo
Visibilità : 
Base nubi : 
>= 8 km
>= 3000ft
5 / 8 km
1000 / 3000 ft
1500m / 5 km
500 / 1000 ft
800 / 1500m
200 / 500 ft
< 800m
< 200 ft
Simboli :   Temporali  Nebbia  Neve Forte  Precipitazioni Forti  Vento > 20 kt
SIGMETs :   Varie  Temporali  Ghiacco  Turbolenza  Onda orograficha  Ceneri Vulcaniche






- Altitudine del aeroporto : 659 ft
- Codice IATA : LGG


EBLG - Liège

ULTIMO METAR :
  • 130720Z VRB01KT CAVOK 24/18 Q1013 NOSIG

METARs OBSOLETI :
  • 130650Z 36003KT 320V030 CAVOK 24/18 Q1012 NOSIG
  • 130620Z VRB02KT CAVOK 23/17 Q1012 NOSIG
  • 130550Z VRB02KT CAVOK 23/17 Q1012 NOSIG
  • 130520Z 13005KT CAVOK 22/17 Q1012 NOSIG
  • 130450Z 06003KT 020V110 9999 FEW080TCU 21/17 Q1012 NOSIG
  • 130420Z 13005KT 9999 FEW080CB 21/18 Q1012 NOSIG

TAF TAF EBLG
Valido dal 13 a 06 ore il 14 a 12 ore UTC


130500Z 1306/1412 17004KT CAVOK
TEMPO 1312/1323 20015G25KT 4000 SHRA TSRA
PROB30
TEMPO 1313/1321 VRB20G35KT 2500 TSRAGR
PROB30
TEMPO 1402/1406 3000 BR MIFG



MetMap, La meteo Aeronautica in un colpo d'occhio ! - Copyright ORBIFLY Dicembre 2007 - Disclaimer

ORBIFLY MET'MAP TEAM :

Programmazione e sviluppo : Alexandra Zaïnal
Concezione : Baudouin d'Aumeries
Aiuto per la programmazione : Marc-Olivier Méhu
Supporto tecnico e logistico : Manuel Goepfert
Aiuto per la traduzione : Arnaldo La Scala

Contatto : metmap@orbifly.com




FONTI E CREDITI :

   NOAA